sensor_id;sensor_type;location;lat;lon;timestamp;P1;durP1;ratioP1;P2;durP2;ratioP2
21862;SDS011;11096;51.338;12.524;2023-09-19T00:01:07;4.63;;;1.63;;
21862;SDS011;11096;51.338;12.524;2023-09-19T00:03:33;3.85;;;1.90;;
21862;SDS011;11096;51.338;12.524;2023-09-19T00:06:03;3.97;;;2.00;;
21862;SDS011;11096;51.338;12.524;2023-09-19T00:08:30;5.45;;;1.95;;
21862;SDS011;11096;51.338;12.524;2023-09-19T00:10:56;9.73;;;1.95;;
21862;SDS011;11096;51.338;12.524;2023-09-19T00:13:21;3.85;;;1.90;;
21862;SDS011;11096;51.338;12.524;2023-09-19T00:15:47;5.18;;;1.70;;
21862;SDS011;11096;51.338;12.524;2023-09-19T00:18:19;2.85;;;1.80;;
21862;SDS011;11096;51.338;12.524;2023-09-19T00:20:49;3.42;;;1.60;;
21862;SDS011;11096;51.338;12.524;2023-09-19T00:23:16;6.63;;;2.10;;
21862;SDS011;11096;51.338;12.524;2023-09-19T00:25:42;3.45;;;1.90;;
21862;SDS011;11096;51.338;12.524;2023-09-19T00:28:07;4.45;;;2.05;;
21862;SDS011;11096;51.338;12.524;2023-09-19T00:30:33;5.15;;;2.15;;
21862;SDS011;11096;51.338;12.524;2023-09-19T00:32:59;5.20;;;1.98;;
21862;SDS011;11096;51.338;12.524;2023-09-19T00:35:27;3.53;;;2.03;;
21862;SDS011;11096;51.338;12.524;2023-09-19T00:37:52;5.57;;;2.30;;
21862;SDS011;11096;51.338;12.524;2023-09-19T00:40:19;5.20;;;2.15;;
21862;SDS011;11096;51.338;12.524;2023-09-19T00:42:46;10.90;;;2.60;;
21862;SDS011;11096;51.338;12.524;2023-09-19T00:45:13;4.90;;;1.95;;
21862;SDS011;11096;51.338;12.524;2023-09-19T00:47:49;3.88;;;1.75;;
21862;SDS011;11096;51.338;12.524;2023-09-19T00:50:16;4.38;;;1.83;;
21862;SDS011;11096;51.338;12.524;2023-09-19T00:52:44;6.50;;;2.00;;
21862;SDS011;11096;51.338;12.524;2023-09-19T00:55:11;3.28;;;2.05;;
21862;SDS011;11096;51.338;12.524;2023-09-19T00:57:38;3.35;;;1.65;;
21862;SDS011;11096;51.338;12.524;2023-09-19T01:00:04;6.75;;;2.15;;
21862;SDS011;11096;51.338;12.524;2023-09-19T01:02:33;5.35;;;1.95;;
21862;SDS011;11096;51.338;12.524;2023-09-19T01:04:59;3.75;;;1.83;;
21862;SDS011;11096;51.338;12.524;2023-09-19T01:07:25;6.88;;;2.33;;
21862;SDS011;11096;51.338;12.524;2023-09-19T01:09:55;3.90;;;1.90;;
21862;SDS011;11096;51.338;12.524;2023-09-19T01:12:25;7.18;;;2.28;;
21862;SDS011;11096;51.338;12.524;2023-09-19T01:15:06;6.43;;;2.60;;
21862;SDS011;11096;51.338;12.524;2023-09-19T01:17:43;5.28;;;2.38;;
21862;SDS011;11096;51.338;12.524;2023-09-19T01:20:19;5.15;;;2.00;;
21862;SDS011;11096;51.338;12.524;2023-09-19T01:23:05;3.88;;;1.75;;
21862;SDS011;11096;51.338;12.524;2023-09-19T01:28:30;6.55;;;1.92;;
21862;SDS011;11096;51.338;12.524;2023-09-19T01:31:06;4.97;;;2.22;;
21862;SDS011;11096;51.338;12.524;2023-09-19T01:33:56;1.92;;;1.48;;
21862;SDS011;11096;51.338;12.524;2023-09-19T01:36:23;3.75;;;2.13;;
21862;SDS011;11096;51.338;12.524;2023-09-19T01:38:49;3.05;;;1.92;;
21862;SDS011;11096;51.338;12.524;2023-09-19T01:41:17;7.70;;;2.00;;
21862;SDS011;11096;51.338;12.524;2023-09-19T01:43:48;5.68;;;1.90;;
21862;SDS011;11096;51.338;12.524;2023-09-19T01:46:20;6.82;;;2.13;;
21862;SDS011;11096;51.338;12.524;2023-09-19T01:54:46;6.88;;;2.25;;
21862;SDS011;11096;51.338;12.524;2023-09-19T01:57:17;2.92;;;2.10;;
21862;SDS011;11096;51.338;12.524;2023-09-19T02:00:00;4.22;;;1.83;;
21862;SDS011;11096;51.338;12.524;2023-09-19T02:02:47;4.03;;;2.10;;
21862;SDS011;11096;51.338;12.524;2023-09-19T02:05:13;4.45;;;2.03;;
21862;SDS011;11096;51.338;12.524;2023-09-19T02:07:38;5.10;;;2.15;;
21862;SDS011;11096;51.338;12.524;2023-09-19T02:10:05;4.72;;;2.20;;
21862;SDS011;11096;51.338;12.524;2023-09-19T02:12:32;3.15;;;2.05;;
21862;SDS011;11096;51.338;12.524;2023-09-19T02:14:58;3.53;;;1.95;;
21862;SDS011;11096;51.338;12.524;2023-09-19T02:17:24;3.85;;;2.20;;
21862;SDS011;11096;51.338;12.524;2023-09-19T02:19:53;3.28;;;1.95;;
21862;SDS011;11096;51.338;12.524;2023-09-19T02:22:19;3.88;;;2.00;;
21862;SDS011;11096;51.338;12.524;2023-09-19T02:24:45;5.55;;;1.92;;
21862;SDS011;11096;51.338;12.524;2023-09-19T02:27:13;3.85;;;1.92;;
21862;SDS011;11096;51.338;12.524;2023-09-19T02:29:41;2.47;;;1.80;;
21862;SDS011;11096;51.338;12.524;2023-09-19T02:32:06;3.53;;;1.90;;
21862;SDS011;11096;51.338;12.524;2023-09-19T02:34:32;3.00;;;1.90;;
21862;SDS011;11096;51.338;12.524;2023-09-19T02:36:57;4.07;;;1.90;;
21862;SDS011;11096;51.338;12.524;2023-09-19T02:39:23;4.70;;;1.60;;
21862;SDS011;11096;51.338;12.524;2023-09-19T02:41:49;3.90;;;2.00;;
21862;SDS011;11096;51.338;12.524;2023-09-19T02:44:14;2.90;;;2.17;;
21862;SDS011;11096;51.338;12.524;2023-09-19T02:46:40;3.80;;;1.90;;
21862;SDS011;11096;51.338;12.524;2023-09-19T02:49:05;7.30;;;1.85;;
21862;SDS011;11096;51.338;12.524;2023-09-19T02:51:31;2.40;;;1.80;;
21862;SDS011;11096;51.338;12.524;2023-09-19T02:53:59;3.67;;;1.80;;
21862;SDS011;11096;51.338;12.524;2023-09-19T02:56:24;3.95;;;1.60;;
21862;SDS011;11096;51.338;12.524;2023-09-19T02:58:50;5.38;;;1.75;;
21862;SDS011;11096;51.338;12.524;2023-09-19T03:01:16;3.85;;;1.77;;
21862;SDS011;11096;51.338;12.524;2023-09-19T03:03:43;3.88;;;2.10;;
21862;SDS011;11096;51.338;12.524;2023-09-19T03:06:10;2.50;;;1.80;;
21862;SDS011;11096;51.338;12.524;2023-09-19T03:08:38;4.00;;;1.52;;
21862;SDS011;11096;51.338;12.524;2023-09-19T03:11:05;2.35;;;1.35;;
21862;SDS011;11096;51.338;12.524;2023-09-19T03:13:31;5.05;;;1.42;;
21862;SDS011;11096;51.338;12.524;2023-09-19T03:15:57;4.13;;;1.40;;
21862;SDS011;11096;51.338;12.524;2023-09-19T03:18:26;2.67;;;1.27;;
21862;SDS011;11096;51.338;12.524;2023-09-19T03:20:57;2.55;;;1.40;;
21862;SDS011;11096;51.338;12.524;2023-09-19T03:23:26;1.77;;;1.17;;
21862;SDS011;11096;51.338;12.524;2023-09-19T03:25:53;3.47;;;1.45;;
21862;SDS011;11096;51.338;12.524;2023-09-19T03:28:19;1.95;;;1.30;;
21862;SDS011;11096;51.338;12.524;2023-09-19T03:30:45;4.40;;;1.40;;
21862;SDS011;11096;51.338;12.524;2023-09-19T03:33:11;3.47;;;1.20;;
21862;SDS011;11096;51.338;12.524;2023-09-19T03:35:37;1.92;;;1.13;;
21862;SDS011;11096;51.338;12.524;2023-09-19T03:38:04;3.38;;;1.13;;
21862;SDS011;11096;51.338;12.524;2023-09-19T03:40:30;3.40;;;1.38;;
21862;SDS011;11096;51.338;12.524;2023-09-19T03:42:56;3.15;;;1.40;;
21862;SDS011;11096;51.338;12.524;2023-09-19T03:45:21;4.70;;;1.60;;
21862;SDS011;11096;51.338;12.524;2023-09-19T03:47:47;3.85;;;1.30;;
21862;SDS011;11096;51.338;12.524;2023-09-19T03:50:12;2.45;;;1.48;;
21862;SDS011;11096;51.338;12.524;2023-09-19T03:52:40;3.50;;;1.20;;
21862;SDS011;11096;51.338;12.524;2023-09-19T03:55:05;3.25;;;1.70;;
21862;SDS011;11096;51.338;12.524;2023-09-19T03:57:31;5.10;;;1.30;;
21862;SDS011;11096;51.338;12.524;2023-09-19T03:59:57;3.50;;;1.48;;
21862;SDS011;11096;51.338;12.524;2023-09-19T04:02:22;4.00;;;1.60;;
21862;SDS011;11096;51.338;12.524;2023-09-19T04:04:49;3.92;;;1.60;;
21862;SDS011;11096;51.338;12.524;2023-09-19T04:07:15;4.13;;;1.40;;
21862;SDS011;11096;51.338;12.524;2023-09-19T04:09:41;2.10;;;1.55;;
21862;SDS011;11096;51.338;12.524;2023-09-19T04:12:07;3.17;;;1.90;;
21862;SDS011;11096;51.338;12.524;2023-09-19T04:14:33;4.40;;;1.55;;
21862;SDS011;11096;51.338;12.524;2023-09-19T04:16:59;4.15;;;1.40;;
21862;SDS011;11096;51.338;12.524;2023-09-19T04:19:25;2.33;;;1.52;;
21862;SDS011;11096;51.338;12.524;2023-09-19T04:21:51;4.13;;;1.33;;
21862;SDS011;11096;51.338;12.524;2023-09-19T04:24:16;4.20;;;1.33;;
21862;SDS011;11096;51.338;12.524;2023-09-19T04:26:44;4.80;;;1.70;;
21862;SDS011;11096;51.338;12.524;2023-09-19T04:29:10;2.20;;;1.52;;
21862;SDS011;11096;51.338;12.524;2023-09-19T04:31:38;4.18;;;1.30;;
21862;SDS011;11096;51.338;12.524;2023-09-19T04:34:08;4.93;;;1.77;;
21862;SDS011;11096;51.338;12.524;2023-09-19T04:36:35;3.83;;;1.77;;
21862;SDS011;11096;51.338;12.524;2023-09-19T04:39:02;3.13;;;1.42;;
21862;SDS011;11096;51.338;12.524;2023-09-19T04:41:30;3.03;;;1.50;;
21862;SDS011;11096;51.338;12.524;2023-09-19T04:43:55;3.60;;;1.42;;
21862;SDS011;11096;51.338;12.524;2023-09-19T04:46:21;1.95;;;1.30;;
21862;SDS011;11096;51.338;12.524;2023-09-19T04:48:46;2.92;;;1.83;;
21862;SDS011;11096;51.338;12.524;2023-09-19T04:51:11;5.90;;;1.60;;
21862;SDS011;11096;51.338;12.524;2023-09-19T04:53:38;6.10;;;1.73;;
21862;SDS011;11096;51.338;12.524;2023-09-19T04:56:04;4.05;;;1.60;;
21862;SDS011;11096;51.338;12.524;2023-09-19T04:58:31;5.30;;;1.67;;
21862;SDS011;11096;51.338;12.524;2023-09-19T05:00:57;2.88;;;1.25;;
21862;SDS011;11096;51.338;12.524;2023-09-19T05:03:22;6.10;;;1.45;;
21862;SDS011;11096;51.338;12.524;2023-09-19T05:05:47;2.15;;;1.42;;
21862;SDS011;11096;51.338;12.524;2023-09-19T05:08:14;6.45;;;1.50;;
21862;SDS011;11096;51.338;12.524;2023-09-19T05:10:39;3.35;;;1.48;;
21862;SDS011;11096;51.338;12.524;2023-09-19T05:13:05;2.17;;;1.58;;
21862;SDS011;11096;51.338;12.524;2023-09-19T05:15:32;2.28;;;1.30;;
21862;SDS011;11096;51.338;12.524;2023-09-19T05:17:58;4.82;;;1.60;;
21862;SDS011;11096;51.338;12.524;2023-09-19T05:20:24;3.30;;;1.55;;
21862;SDS011;11096;51.338;12.524;2023-09-19T05:23:04;4.55;;;1.30;;
21862;SDS011;11096;51.338;12.524;2023-09-19T05:25:34;2.92;;;1.60;;
21862;SDS011;11096;51.338;12.524;2023-09-19T05:28:07;4.97;;;1.67;;
21862;SDS011;11096;51.338;12.524;2023-09-19T05:30:34;4.07;;;1.75;;
21862;SDS011;11096;51.338;12.524;2023-09-19T05:33:01;5.88;;;1.65;;
21862;SDS011;11096;51.338;12.524;2023-09-19T05:35:27;9.13;;;2.20;;
21862;SDS011;11096;51.338;12.524;2023-09-19T05:37:53;4.25;;;1.27;;
21862;SDS011;11096;51.338;12.524;2023-09-19T05:40:20;3.42;;;1.30;;
21862;SDS011;11096;51.338;12.524;2023-09-19T05:42:46;4.38;;;1.60;;
21862;SDS011;11096;51.338;12.524;2023-09-19T05:45:11;2.22;;;1.50;;
21862;SDS011;11096;51.338;12.524;2023-09-19T05:47:41;4.65;;;2.45;;
21862;SDS011;11096;51.338;12.524;2023-09-19T05:50:08;3.28;;;1.35;;
21862;SDS011;11096;51.338;12.524;2023-09-19T05:52:34;3.05;;;1.30;;
21862;SDS011;11096;51.338;12.524;2023-09-19T05:55:02;4.75;;;1.70;;
21862;SDS011;11096;51.338;12.524;2023-09-19T05:57:30;2.40;;;1.30;;
21862;SDS011;11096;51.338;12.524;2023-09-19T05:59:55;3.90;;;1.40;;
21862;SDS011;11096;51.338;12.524;2023-09-19T06:02:21;2.40;;;1.30;;
21862;SDS011;11096;51.338;12.524;2023-09-19T06:04:46;3.30;;;1.33;;
21862;SDS011;11096;51.338;12.524;2023-09-19T06:07:11;3.35;;;1.33;;
21862;SDS011;11096;51.338;12.524;2023-09-19T06:09:37;4.18;;;1.55;;
21862;SDS011;11096;51.338;12.524;2023-09-19T06:12:02;2.20;;;1.20;;
21862;SDS011;11096;51.338;12.524;2023-09-19T06:14:29;5.05;;;1.55;;
21862;SDS011;11096;51.338;12.524;2023-09-19T06:16:55;2.25;;;1.40;;
21862;SDS011;11096;51.338;12.524;2023-09-19T06:19:21;4.75;;;1.15;;
21862;SDS011;11096;51.338;12.524;2023-09-19T06:21:47;2.95;;;1.20;;
21862;SDS011;11096;51.338;12.524;2023-09-19T06:24:13;3.90;;;1.10;;
21862;SDS011;11096;51.338;12.524;2023-09-19T06:26:39;3.70;;;1.15;;
21862;SDS011;11096;51.338;12.524;2023-09-19T06:29:05;2.45;;;1.10;;
21862;SDS011;11096;51.338;12.524;2023-09-19T06:31:32;4.57;;;1.40;;
21862;SDS011;11096;51.338;12.524;2023-09-19T06:33:58;4.05;;;1.30;;
21862;SDS011;11096;51.338;12.524;2023-09-19T06:36:23;2.70;;;1.30;;
21862;SDS011;11096;51.338;12.524;2023-09-19T06:38:49;1.88;;;1.17;;
21862;SDS011;11096;51.338;12.524;2023-09-19T06:41:16;3.65;;;1.27;;
21862;SDS011;11096;51.338;12.524;2023-09-19T06:43:42;5.65;;;1.33;;
21862;SDS011;11096;51.338;12.524;2023-09-19T06:46:07;4.57;;;1.10;;
21862;SDS011;11096;51.338;12.524;2023-09-19T06:48:33;2.58;;;1.30;;
21862;SDS011;11096;51.338;12.524;2023-09-19T06:50:59;2.40;;;1.27;;
21862;SDS011;11096;51.338;12.524;2023-09-19T06:53:26;3.72;;;1.00;;
21862;SDS011;11096;51.338;12.524;2023-09-19T06:55:52;2.17;;;1.05;;
21862;SDS011;11096;51.338;12.524;2023-09-19T06:58:18;3.60;;;1.30;;
21862;SDS011;11096;51.338;12.524;2023-09-19T07:00:44;3.60;;;1.23;;
21862;SDS011;11096;51.338;12.524;2023-09-19T07:03:09;6.00;;;1.23;;
21862;SDS011;11096;51.338;12.524;2023-09-19T07:05:38;4.13;;;1.10;;
21862;SDS011;11096;51.338;12.524;2023-09-19T07:08:05;2.33;;;1.25;;
21862;SDS011;11096;51.338;12.524;2023-09-19T07:10:32;4.22;;;1.23;;
21862;SDS011;11096;51.338;12.524;2023-09-19T07:15:29;4.63;;;1.40;;
21862;SDS011;11096;51.338;12.524;2023-09-19T07:18:01;2.08;;;1.02;;
21862;SDS011;11096;51.338;12.524;2023-09-19T07:20:27;3.05;;;1.00;;
21862;SDS011;11096;51.338;12.524;2023-09-19T07:22:56;1.77;;;1.10;;
21862;SDS011;11096;51.338;12.524;2023-09-19T07:25:24;4.97;;;1.08;;
21862;SDS011;11096;51.338;12.524;2023-09-19T07:27:50;2.22;;;1.13;;
21862;SDS011;11096;51.338;12.524;2023-09-19T07:30:16;4.78;;;1.10;;
21862;SDS011;11096;51.338;12.524;2023-09-19T07:32:41;3.92;;;1.13;;
21862;SDS011;11096;51.338;12.524;2023-09-19T07:35:07;4.97;;;1.38;;
21862;SDS011;11096;51.338;12.524;2023-09-19T07:37:33;4.07;;;1.20;;
21862;SDS011;11096;51.338;12.524;2023-09-19T07:40:01;8.85;;;1.60;;
21862;SDS011;11096;51.338;12.524;2023-09-19T07:42:28;5.70;;;1.20;;
21862;SDS011;11096;51.338;12.524;2023-09-19T07:44:53;7.45;;;1.48;;
21862;SDS011;11096;51.338;12.524;2023-09-19T07:47:19;5.10;;;1.00;;
21862;SDS011;11096;51.338;12.524;2023-09-19T07:49:46;7.68;;;1.50;;
21862;SDS011;11096;51.338;12.524;2023-09-19T07:52:12;4.70;;;1.27;;
21862;SDS011;11096;51.338;12.524;2023-09-19T07:54:38;6.40;;;1.02;;
21862;SDS011;11096;51.338;12.524;2023-09-19T07:57:06;4.03;;;1.20;;
21862;SDS011;11096;51.338;12.524;2023-09-19T07:59:32;5.10;;;1.15;;
21862;SDS011;11096;51.338;12.524;2023-09-19T08:01:57;4.78;;;1.20;;
21862;SDS011;11096;51.338;12.524;2023-09-19T08:04:23;8.43;;;1.60;;
21862;SDS011;11096;51.338;12.524;2023-09-19T08:06:51;3.08;;;0.85;;
21862;SDS011;11096;51.338;12.524;2023-09-19T08:09:17;6.22;;;1.40;;
21862;SDS011;11096;51.338;12.524;2023-09-19T08:11:46;4.65;;;1.70;;
21862;SDS011;11096;51.338;12.524;2023-09-19T08:14:12;2.97;;;1.17;;
21862;SDS011;11096;51.338;12.524;2023-09-19T08:16:39;5.32;;;0.95;;
21862;SDS011;11096;51.338;12.524;2023-09-19T08:19:05;4.25;;;1.17;;
21862;SDS011;11096;51.338;12.524;2023-09-19T08:21:30;6.20;;;1.27;;
21862;SDS011;11096;51.338;12.524;2023-09-19T08:23:57;3.95;;;1.00;;
21862;SDS011;11096;51.338;12.524;2023-09-19T08:26:22;2.97;;;1.00;;
21862;SDS011;11096;51.338;12.524;2023-09-19T08:28:49;5.18;;;1.10;;
21862;SDS011;11096;51.338;12.524;2023-09-19T08:31:16;9.02;;;1.77;;
21862;SDS011;11096;51.338;12.524;2023-09-19T08:33:42;7.68;;;1.10;;
21862;SDS011;11096;51.338;12.524;2023-09-19T08:36:10;4.57;;;0.85;;
21862;SDS011;11096;51.338;12.524;2023-09-19T08:38:39;3.40;;;1.00;;
21862;SDS011;11096;51.338;12.524;2023-09-19T08:41:06;3.78;;;0.88;;
21862;SDS011;11096;51.338;12.524;2023-09-19T08:43:35;5.10;;;1.10;;
21862;SDS011;11096;51.338;12.524;2023-09-19T08:46:09;5.40;;;1.10;;
21862;SDS011;11096;51.338;12.524;2023-09-19T08:48:43;2.88;;;1.10;;
21862;SDS011;11096;51.338;12.524;2023-09-19T08:51:16;7.65;;;1.05;;
21862;SDS011;11096;51.338;12.524;2023-09-19T08:56:31;3.35;;;1.20;;
21862;SDS011;11096;51.338;12.524;2023-09-19T08:59:00;4.28;;;1.13;;
21862;SDS011;11096;51.338;12.524;2023-09-19T09:01:28;9.48;;;1.55;;
21862;SDS011;11096;51.338;12.524;2023-09-19T09:03:54;5.35;;;1.10;;
21862;SDS011;11096;51.338;12.524;2023-09-19T09:06:21;3.53;;;1.08;;
21862;SDS011;11096;51.338;12.524;2023-09-19T09:08:48;4.47;;;0.88;;
21862;SDS011;11096;51.338;12.524;2023-09-19T09:11:16;4.25;;;1.20;;
21862;SDS011;11096;51.338;12.524;2023-09-19T09:13:45;1.98;;;0.80;;
21862;SDS011;11096;51.338;12.524;2023-09-19T09:16:11;3.28;;;1.30;;
21862;SDS011;11096;51.338;12.524;2023-09-19T09:18:38;3.95;;;1.17;;
21862;SDS011;11096;51.338;12.524;2023-09-19T09:21:04;2.55;;;0.95;;
21862;SDS011;11096;51.338;12.524;2023-09-19T09:23:29;1.80;;;0.85;;
21862;SDS011;11096;51.338;12.524;2023-09-19T09:25:57;5.07;;;1.40;;
21862;SDS011;11096;51.338;12.524;2023-09-19T09:28:28;7.82;;;1.02;;
21862;SDS011;11096;51.338;12.524;2023-09-19T09:30:56;4.32;;;1.10;;
21862;SDS011;11096;51.338;12.524;2023-09-19T09:33:23;3.90;;;1.00;;
21862;SDS011;11096;51.338;12.524;2023-09-19T09:35:53;4.57;;;1.00;;
21862;SDS011;11096;51.338;12.524;2023-09-19T09:38:25;5.15;;;0.90;;
21862;SDS011;11096;51.338;12.524;2023-09-19T09:40:57;3.53;;;1.10;;
21862;SDS011;11096;51.338;12.524;2023-09-19T09:46:06;5.22;;;1.02;;
21862;SDS011;11096;51.338;12.524;2023-09-19T09:49:04;4.68;;;1.00;;
21862;SDS011;11096;51.338;12.524;2023-09-19T09:52:01;7.88;;;1.23;;
21862;SDS011;11096;51.338;12.524;2023-09-19T09:54:41;9.98;;;1.23;;
21862;SDS011;11096;51.338;12.524;2023-09-19T09:57:24;2.17;;;1.00;;
21862;SDS011;11096;51.338;12.524;2023-09-19T10:02:35;5.10;;;1.00;;
21862;SDS011;11096;51.338;12.524;2023-09-19T10:07:46;2.58;;;1.20;;
21862;SDS011;11096;51.338;12.524;2023-09-19T10:13:11;2.88;;;0.75;;
21862;SDS011;11096;51.338;12.524;2023-09-19T10:15:38;4.90;;;1.15;;
21862;SDS011;11096;51.338;12.524;2023-09-19T10:18:13;3.58;;;1.13;;
21862;SDS011;11096;51.338;12.524;2023-09-19T10:20:44;6.20;;;1.25;;
21862;SDS011;11096;51.338;12.524;2023-09-19T10:23:11;5.43;;;1.45;;
21862;SDS011;11096;51.338;12.524;2023-09-19T10:25:43;7.40;;;1.17;;
21862;SDS011;11096;51.338;12.524;2023-09-19T10:28:12;7.40;;;1.10;;
21862;SDS011;11096;51.338;12.524;2023-09-19T10:30:45;4.05;;;1.10;;
21862;SDS011;11096;51.338;12.524;2023-09-19T10:33:22;4.70;;;1.33;;
21862;SDS011;11096;51.338;12.524;2023-09-19T10:35:50;2.78;;;0.95;;
21862;SDS011;11096;51.338;12.524;2023-09-19T10:38:22;10.38;;;1.88;;
21862;SDS011;11096;51.338;12.524;2023-09-19T10:40:53;3.35;;;1.45;;
21862;SDS011;11096;51.338;12.524;2023-09-19T10:43:20;5.88;;;1.45;;
21862;SDS011;11096;51.338;12.524;2023-09-19T10:45:47;5.20;;;1.40;;
21862;SDS011;11096;51.338;12.524;2023-09-19T10:48:15;7.20;;;1.33;;
21862;SDS011;11096;51.338;12.524;2023-09-19T10:53:51;5.03;;;1.40;;
21862;SDS011;11096;51.338;12.524;2023-09-19T10:56:24;3.60;;;1.15;;
21862;SDS011;11096;51.338;12.524;2023-09-19T10:59:07;4.65;;;1.30;;
21862;SDS011;11096;51.338;12.524;2023-09-19T11:01:43;2.58;;;1.00;;
21862;SDS011;11096;51.338;12.524;2023-09-19T11:07:13;3.00;;;1.20;;
21862;SDS011;11096;51.338;12.524;2023-09-19T11:12:08;6.95;;;1.20;;
21862;SDS011;11096;51.338;12.524;2023-09-19T11:14:37;3.80;;;1.30;;
21862;SDS011;11096;51.338;12.524;2023-09-19T11:30:47;5.35;;;1.55;;
21862;SDS011;11096;51.338;12.524;2023-09-19T11:43:47;3.25;;;1.45;;
21862;SDS011;11096;51.338;12.524;2023-09-19T11:46:13;3.58;;;1.50;;
21862;SDS011;11096;51.338;12.524;2023-09-19T11:48:42;5.75;;;1.55;;
21862;SDS011;11096;51.338;12.524;2023-09-19T11:51:19;2.33;;;0.90;;
21862;SDS011;11096;51.338;12.524;2023-09-19T11:53:51;4.53;;;1.20;;
21862;SDS011;11096;51.338;12.524;2023-09-19T11:56:21;5.40;;;1.38;;
21862;SDS011;11096;51.338;12.524;2023-09-19T11:58:52;5.68;;;1.58;;
21862;SDS011;11096;51.338;12.524;2023-09-19T12:01:21;3.97;;;1.38;;
21862;SDS011;11096;51.338;12.524;2023-09-19T12:03:52;4.90;;;1.38;;
21862;SDS011;11096;51.338;12.524;2023-09-19T12:06:19;3.40;;;1.10;;
21862;SDS011;11096;51.338;12.524;2023-09-19T12:08:47;2.88;;;1.33;;
21862;SDS011;11096;51.338;12.524;2023-09-19T12:11:14;5.63;;;1.05;;
21862;SDS011;11096;51.338;12.524;2023-09-19T12:13:44;5.68;;;1.10;;
21862;SDS011;11096;51.338;12.524;2023-09-19T12:16:20;5.90;;;1.25;;
21862;SDS011;11096;51.338;12.524;2023-09-19T12:18:47;5.72;;;1.27;;
21862;SDS011;11096;51.338;12.524;2023-09-19T12:21:22;3.13;;;1.30;;
21862;SDS011;11096;51.338;12.524;2023-09-19T12:26:44;7.43;;;1.63;;
21862;SDS011;11096;51.338;12.524;2023-09-19T12:29:16;3.20;;;1.23;;
21862;SDS011;11096;51.338;12.524;2023-09-19T12:34:25;5.32;;;1.40;;
21862;SDS011;11096;51.338;12.524;2023-09-19T12:39:48;4.93;;;1.45;;
21862;SDS011;11096;51.338;12.524;2023-09-19T12:42:25;5.57;;;1.27;;
21862;SDS011;11096;51.338;12.524;2023-09-19T12:45:00;4.25;;;1.55;;
21862;SDS011;11096;51.338;12.524;2023-09-19T12:47:27;3.95;;;1.67;;
21862;SDS011;11096;51.338;12.524;2023-09-19T12:50:13;5.65;;;1.33;;
21862;SDS011;11096;51.338;12.524;2023-09-19T12:52:46;4.13;;;1.48;;
21862;SDS011;11096;51.338;12.524;2023-09-19T12:55:20;3.80;;;1.58;;
21862;SDS011;11096;51.338;12.524;2023-09-19T13:00:21;5.45;;;2.08;;
21862;SDS011;11096;51.338;12.524;2023-09-19T13:03:12;3.33;;;1.27;;
21862;SDS011;11096;51.338;12.524;2023-09-19T13:08:23;8.18;;;1.92;;
21862;SDS011;11096;51.338;12.524;2023-09-19T13:13:26;3.97;;;1.70;;
21862;SDS011;11096;51.338;12.524;2023-09-19T13:15:53;4.75;;;1.58;;
21862;SDS011;11096;51.338;12.524;2023-09-19T13:18:19;4.95;;;1.92;;
21862;SDS011;11096;51.338;12.524;2023-09-19T13:21:04;3.45;;;1.80;;
21862;SDS011;11096;51.338;12.524;2023-09-19T13:23:31;5.63;;;1.92;;
21862;SDS011;11096;51.338;12.524;2023-09-19T13:25:57;4.43;;;1.67;;
21862;SDS011;11096;51.338;12.524;2023-09-19T13:28:22;5.47;;;1.48;;
21862;SDS011;11096;51.338;12.524;2023-09-19T13:30:47;3.72;;;1.70;;
21862;SDS011;11096;51.338;12.524;2023-09-19T13:33:13;8.07;;;2.08;;
21862;SDS011;11096;51.338;12.524;2023-09-19T13:35:45;2.92;;;1.80;;
21862;SDS011;11096;51.338;12.524;2023-09-19T13:38:13;6.80;;;2.08;;
21862;SDS011;11096;51.338;12.524;2023-09-19T13:40:39;4.25;;;1.95;;
21862;SDS011;11096;51.338;12.524;2023-09-19T13:43:06;7.05;;;1.60;;
21862;SDS011;11096;51.338;12.524;2023-09-19T13:45:33;2.83;;;1.67;;
21862;SDS011;11096;51.338;12.524;2023-09-19T13:47:59;6.63;;;1.90;;
21862;SDS011;11096;51.338;12.524;2023-09-19T13:50:24;4.05;;;1.75;;
21862;SDS011;11096;51.338;12.524;2023-09-19T13:52:54;3.65;;;1.73;;
21862;SDS011;11096;51.338;12.524;2023-09-19T13:55:19;6.05;;;1.83;;
21862;SDS011;11096;51.338;12.524;2023-09-19T13:57:46;3.80;;;1.73;;
21862;SDS011;11096;51.338;12.524;2023-09-19T14:00:20;5.00;;;2.10;;
21862;SDS011;11096;51.338;12.524;2023-09-19T14:02:47;5.93;;;2.28;;
21862;SDS011;11096;51.338;12.524;2023-09-19T14:05:14;2.47;;;1.65;;
21862;SDS011;11096;51.338;12.524;2023-09-19T14:07:41;4.25;;;1.92;;
21862;SDS011;11096;51.338;12.524;2023-09-19T14:10:07;4.07;;;1.70;;
21862;SDS011;11096;51.338;12.524;2023-09-19T14:12:33;5.72;;;1.70;;
21862;SDS011;11096;51.338;12.524;2023-09-19T14:14:59;5.78;;;2.20;;
21862;SDS011;11096;51.338;12.524;2023-09-19T14:17:25;8.63;;;1.83;;
21862;SDS011;11096;51.338;12.524;2023-09-19T14:19:51;6.47;;;1.70;;
21862;SDS011;11096;51.338;12.524;2023-09-19T14:22:17;8.32;;;2.00;;
21862;SDS011;11096;51.338;12.524;2023-09-19T14:24:42;4.43;;;2.28;;
21862;SDS011;11096;51.338;12.524;2023-09-19T14:27:08;4.97;;;1.73;;
21862;SDS011;11096;51.338;12.524;2023-09-19T14:29:34;4.40;;;1.85;;
21862;SDS011;11096;51.338;12.524;2023-09-19T14:32:00;3.50;;;1.90;;
21862;SDS011;11096;51.338;12.524;2023-09-19T14:34:25;5.65;;;1.95;;
21862;SDS011;11096;51.338;12.524;2023-09-19T14:36:51;5.22;;;2.10;;
21862;SDS011;11096;51.338;12.524;2023-09-19T14:39:16;7.20;;;2.28;;
21862;SDS011;11096;51.338;12.524;2023-09-19T14:41:42;3.95;;;2.30;;
21862;SDS011;11096;51.338;12.524;2023-09-19T14:44:07;5.38;;;2.45;;
21862;SDS011;11096;51.338;12.524;2023-09-19T14:46:35;4.10;;;1.90;;
21862;SDS011;11096;51.338;12.524;2023-09-19T14:49:01;7.78;;;2.08;;
21862;SDS011;11096;51.338;12.524;2023-09-19T14:51:29;4.65;;;2.22;;
21862;SDS011;11096;51.338;12.524;2023-09-19T14:53:55;3.63;;;2.20;;
21862;SDS011;11096;51.338;12.524;2023-09-19T14:56:21;4.65;;;2.00;;
21862;SDS011;11096;51.338;12.524;2023-09-19T14:58:48;5.82;;;2.13;;
21862;SDS011;11096;51.338;12.524;2023-09-19T15:01:14;4.75;;;2.20;;
21862;SDS011;11096;51.338;12.524;2023-09-19T15:03:40;4.68;;;1.92;;
21862;SDS011;11096;51.338;12.524;2023-09-19T15:06:08;8.80;;;2.75;;
21862;SDS011;11096;51.338;12.524;2023-09-19T15:08:35;6.35;;;2.08;;
21862;SDS011;11096;51.338;12.524;2023-09-19T15:11:09;5.53;;;2.38;;
21862;SDS011;11096;51.338;12.524;2023-09-19T15:13:35;5.85;;;2.25;;
21862;SDS011;11096;51.338;12.524;2023-09-19T15:16:02;4.03;;;2.10;;
21862;SDS011;11096;51.338;12.524;2023-09-19T15:18:34;5.05;;;2.30;;
21862;SDS011;11096;51.338;12.524;2023-09-19T15:21:02;4.93;;;2.05;;
21862;SDS011;11096;51.338;12.524;2023-09-19T15:23:29;5.88;;;2.03;;
21862;SDS011;11096;51.338;12.524;2023-09-19T15:25:59;5.57;;;2.10;;
21862;SDS011;11096;51.338;12.524;2023-09-19T15:28:28;7.05;;;2.13;;
21862;SDS011;11096;51.338;12.524;2023-09-19T15:31:01;5.93;;;2.35;;
21862;SDS011;11096;51.338;12.524;2023-09-19T15:33:27;5.18;;;2.45;;
21862;SDS011;11096;51.338;12.524;2023-09-19T15:38:31;4.35;;;2.30;;
21862;SDS011;11096;51.338;12.524;2023-09-19T15:41:19;4.93;;;1.90;;
21862;SDS011;11096;51.338;12.524;2023-09-19T15:43:45;6.72;;;2.53;;
21862;SDS011;11096;51.338;12.524;2023-09-19T15:46:11;4.13;;;2.03;;
21862;SDS011;11096;51.338;12.524;2023-09-19T15:48:36;4.88;;;2.63;;
21862;SDS011;11096;51.338;12.524;2023-09-19T15:51:04;4.95;;;2.35;;
21862;SDS011;11096;51.338;12.524;2023-09-19T15:53:41;11.02;;;2.80;;
21862;SDS011;11096;51.338;12.524;2023-09-19T15:56:09;4.93;;;2.47;;